KTIX/TIX METAR and TAF weather

Enter ICAO airport designator
Station Type Date Time Source
KTIX METAR 2020/09/23 19:47 UTC NOAA

KTIX 231947Z 11011KT 7SM SCT050 31/17 A2999


Station Type Date Time Source
KTIX Decoded METAR 2020/09/23 19:47 UTC NOAA

Titusville, FL, United States (KTIX) 28-31N 080-48W
Sep 23, 2020 - 03:47 PM EDT / 2020.09.23 1947 UTC
Wind: from the ESE (110 degrees) at 13 MPH (11 KT):0
Visibility: 7 mile(s):0
Sky conditions: partly cloudy
Temperature: 87 F (31 C)
Dew Point: 62 F (17 C)
Relative Humidity: 43%
Pressure (altimeter): 29.99 in. Hg (1015 hPa)
ob: KTIX 231947Z 11011KT 7SM SCT050 31/17 A2999
cycle: 20

Station Type Date Time Source
KTIX TAF 2020/09/23 18:30 UTC NOAA

TAF KTIX 231729Z 2318/2418 11009KT P6SM SCT040 SCT250
FM240300 11006KT P6SM SCT040 BKN250
FM241500 12010KT P6SM FEW040 BKN200

Example: see airport list